createdAt,value
2022-12-07T00:00:40.807Z,99.99
2022-12-07T00:01:40.894Z,99.99
2022-12-07T00:02:40.900Z,99.99
2022-12-07T00:03:40.896Z,99.99
2022-12-07T00:04:40.841Z,99.99
2022-12-07T00:05:40.847Z,99.99
2022-12-07T00:06:40.864Z,99.99
2022-12-07T00:07:40.890Z,99.99
2022-12-07T00:08:40.872Z,99.99
2022-12-07T00:09:40.884Z,99.99
2022-12-07T00:10:40.891Z,99.99
2022-12-07T00:11:40.897Z,99.99
2022-12-07T00:12:40.911Z,99.99
2022-12-07T00:13:40.919Z,99.99
2022-12-07T00:14:40.924Z,99.99
2022-12-07T00:15:40.930Z,99.99
2022-12-07T00:16:41.009Z,99.99
2022-12-07T00:17:40.954Z,99.99
2022-12-07T00:18:40.958Z,99.99
2022-12-07T00:19:40.965Z,99.99
2022-12-07T00:20:40.974Z,99.99
2022-12-07T00:21:40.986Z,99.99
2022-12-07T00:22:40.992Z,99.99
2022-12-07T00:23:40.999Z,99.99
2022-12-07T00:24:41.015Z,99.99
2022-12-07T00:25:41.016Z,99.99
2022-12-07T00:26:41.025Z,99.99
2022-12-07T00:27:41.031Z,99.99
2022-12-07T00:28:41.043Z,99.99
2022-12-07T00:29:41.048Z,99.99
2022-12-07T00:30:41.059Z,99.99
2022-12-07T00:31:41.140Z,99.99
2022-12-07T00:32:41.073Z,99.99
2022-12-07T00:33:41.081Z,99.99
2022-12-07T00:34:41.092Z,99.99
2022-12-07T00:35:41.098Z,99.99
2022-12-07T00:36:41.109Z,99.99
2022-12-07T00:37:41.115Z,99.99
2022-12-07T00:38:41.134Z,99.99
2022-12-07T00:39:41.131Z,99.99
2022-12-07T00:40:41.140Z,99.99
2022-12-07T00:41:41.155Z,99.99
2022-12-07T00:42:41.158Z,99.99
2022-12-07T00:43:41.163Z,99.99
2022-12-07T00:44:41.189Z,99.99
2022-12-07T00:45:41.226Z,99.99
2022-12-07T00:46:41.192Z,99.99
2022-12-07T00:47:41.199Z,99.99
2022-12-07T00:48:41.203Z,99.99
2022-12-07T00:49:41.211Z,99.99
2022-12-07T00:50:41.221Z,99.99
2022-12-07T00:51:41.230Z,99.99
2022-12-07T00:52:41.238Z,99.99
2022-12-07T00:53:41.948Z,99.99
2022-12-07T00:54:41.250Z,99.99
2022-12-07T00:55:41.259Z,99.99
2022-12-07T00:56:41.267Z,99.99
2022-12-07T00:57:41.276Z,99.99
2022-12-07T00:58:41.287Z,99.99
2022-12-07T00:59:41.295Z,99.99
2022-12-07T01:00:41.306Z,99.99
2022-12-07T01:01:41.392Z,99.99
2022-12-07T01:02:41.317Z,99.99
2022-12-07T01:03:41.405Z,99.99
2022-12-07T01:04:41.333Z,99.99
2022-12-07T01:05:41.339Z,99.99
2022-12-07T01:06:41.347Z,99.99
2022-12-07T01:07:41.421Z,99.99
2022-12-07T01:08:41.364Z,99.99
2022-12-07T01:09:41.371Z,99.99
2022-12-07T01:10:41.377Z,99.99
2022-12-07T01:11:41.389Z,99.99
2022-12-07T01:12:41.395Z,99.99
2022-12-07T01:13:41.406Z,99.99
2022-12-07T01:14:41.412Z,99.99
2022-12-07T01:15:41.418Z,99.99
2022-12-07T01:16:41.508Z,99.99
2022-12-07T01:17:41.435Z,99.99
2022-12-07T01:18:41.445Z,99.99
2022-12-07T01:19:41.451Z,99.99
2022-12-07T01:20:41.460Z,99.99
2022-12-07T01:21:41.469Z,99.99
2022-12-07T01:22:41.480Z,99.99
2022-12-07T01:23:41.482Z,99.99
2022-12-07T01:24:41.493Z,99.99
2022-12-07T01:25:41.499Z,99.99
2022-12-07T01:26:41.508Z,99.99
2022-12-07T01:27:41.520Z,99.99
2022-12-07T01:28:41.524Z,99.99
2022-12-07T01:29:41.533Z,99.99
2022-12-07T01:30:41.562Z,99.99
2022-12-07T01:31:41.583Z,99.99
2022-12-07T01:32:41.556Z,99.99
2022-12-07T01:33:41.562Z,99.99
2022-12-07T01:34:41.573Z,99.99
2022-12-07T01:35:41.580Z,99.99
2022-12-07T01:36:41.587Z,99.99
2022-12-07T01:37:41.601Z,99.99
2022-12-07T01:38:41.607Z,99.99
2022-12-07T01:39:41.614Z,99.99
2022-12-07T01:40:41.622Z,99.99
2022-12-07T01:41:41.739Z,99.99
2022-12-07T01:42:41.637Z,99.99
2022-12-07T01:43:41.645Z,99.99
2022-12-07T01:44:41.655Z,99.99
2022-12-07T01:45:41.761Z,99.99
2022-12-07T01:46:41.670Z,99.99
2022-12-07T01:47:41.678Z,99.99
2022-12-07T01:48:41.685Z,99.99
2022-12-07T01:49:41.695Z,99.99
2022-12-07T01:50:41.703Z,99.99
2022-12-07T01:51:41.710Z,99.99
2022-12-07T01:52:41.724Z,99.99
2022-12-07T01:53:41.728Z,99.99
2022-12-07T01:54:41.738Z,99.99
2022-12-07T01:55:41.750Z,99.99
2022-12-07T01:56:41.747Z,99.99
2022-12-07T01:57:41.759Z,99.99
2022-12-07T01:58:41.766Z,99.99
2022-12-07T01:59:41.776Z,99.99
2022-12-07T02:00:41.786Z,99.99
2022-12-07T02:01:41.852Z,99.99
2022-12-07T02:02:41.833Z,99.99
2022-12-07T02:03:41.809Z,99.99
2022-12-07T02:04:41.820Z,99.99
2022-12-07T02:05:41.824Z,99.99
2022-12-07T02:06:41.832Z,99.99
2022-12-07T02:07:41.876Z,99.99
2022-12-07T02:08:41.847Z,99.99
2022-12-07T02:09:41.857Z,99.99
2022-12-07T02:10:41.867Z,99.99
2022-12-07T02:11:41.872Z,99.99
2022-12-07T02:12:41.879Z,99.99
2022-12-07T02:13:41.888Z,99.99
2022-12-07T02:14:41.896Z,99.99
2022-12-07T02:15:41.923Z,99.99
2022-12-07T02:16:41.918Z,99.99
2022-12-07T02:17:41.924Z,99.99
2022-12-07T02:18:41.944Z,99.99
2022-12-07T02:19:41.935Z,99.99
2022-12-07T02:20:41.945Z,99.99
2022-12-07T02:21:41.953Z,99.99
2022-12-07T02:22:41.963Z,99.99
2022-12-07T02:23:41.973Z,99.99
2022-12-07T02:24:41.982Z,99.99
2022-12-07T02:25:42.023Z,99.99
2022-12-07T02:26:41.991Z,99.99
2022-12-07T02:27:42.000Z,99.99
2022-12-07T02:28:42.007Z,99.99
2022-12-07T02:29:42.015Z,99.99
2022-12-07T02:30:42.110Z,99.99
2022-12-07T02:31:42.030Z,99.99
2022-12-07T02:32:42.039Z,99.99
2022-12-07T02:33:42.050Z,99.99
2022-12-07T02:34:42.054Z,99.99
2022-12-07T02:35:42.060Z,99.99
2022-12-07T02:36:42.069Z,99.99
2022-12-07T02:37:42.084Z,99.99
2022-12-07T02:38:42.086Z,99.99
2022-12-07T02:39:42.092Z,99.99
2022-12-07T02:40:42.100Z,99.99
2022-12-07T02:41:42.109Z,99.99
2022-12-07T02:42:42.116Z,99.99
2022-12-07T02:43:42.123Z,99.99
2022-12-07T02:44:42.138Z,99.99
2022-12-07T02:45:42.141Z,99.99
2022-12-07T02:46:42.234Z,99.99
2022-12-07T02:47:42.154Z,99.99
2022-12-07T02:48:42.164Z,99.99
2022-12-07T02:49:42.173Z,99.99
2022-12-07T02:50:42.180Z,99.99
2022-12-07T02:51:42.188Z,99.99
2022-12-07T02:52:42.196Z,99.99
2022-12-07T02:53:42.206Z,99.99
2022-12-07T02:54:42.222Z,99.99
2022-12-07T02:55:42.215Z,99.99
2022-12-07T02:56:42.224Z,99.99
2022-12-07T02:57:42.232Z,99.99
2022-12-07T02:58:42.242Z,99.99
2022-12-07T02:59:42.250Z,99.99
2022-12-07T03:00:42.255Z,99.99
2022-12-07T03:01:42.398Z,99.99
2022-12-07T03:02:42.347Z,99.99
2022-12-07T03:03:42.289Z,99.99
2022-12-07T03:04:42.287Z,99.99
2022-12-07T03:05:42.296Z,99.99
2022-12-07T03:06:42.302Z,99.99
2022-12-07T03:07:42.334Z,99.99
2022-12-07T03:08:42.318Z,99.99
2022-12-07T03:09:42.329Z,99.99
2022-12-07T03:10:42.340Z,99.99
2022-12-07T03:11:42.349Z,99.99
2022-12-07T03:12:42.349Z,99.99
2022-12-07T03:13:42.357Z,99.99
2022-12-07T03:14:42.366Z,99.99
2022-12-07T03:15:42.396Z,99.99
2022-12-07T03:16:42.379Z,99.99
2022-12-07T03:17:42.386Z,99.99
2022-12-07T03:18:42.398Z,99.99
2022-12-07T03:19:42.403Z,99.99
2022-12-07T03:20:42.410Z,99.99
2022-12-07T03:21:42.418Z,99.99
2022-12-07T03:22:42.431Z,99.99
2022-12-07T03:23:42.433Z,99.99
2022-12-07T03:24:42.444Z,99.99
2022-12-07T03:25:42.448Z,99.99
2022-12-07T03:26:42.456Z,99.99
2022-12-07T03:27:42.463Z,99.99
2022-12-07T03:28:42.474Z,99.99
2022-12-07T03:29:42.479Z,99.99
2022-12-07T03:30:42.541Z,99.99
2022-12-07T03:31:42.589Z,99.99
2022-12-07T03:32:42.502Z,99.99
2022-12-07T03:33:42.511Z,99.99
2022-12-07T03:34:42.518Z,99.99
2022-12-07T03:35:42.526Z,99.99
2022-12-07T03:36:42.533Z,99.99
2022-12-07T03:37:42.544Z,99.99
2022-12-07T03:38:42.600Z,99.99
2022-12-07T03:39:42.558Z,99.99
2022-12-07T03:40:42.562Z,99.99
2022-12-07T03:41:45.341Z,99.99
2022-12-07T03:42:42.582Z,99.99
2022-12-07T03:43:42.590Z,99.99
2022-12-07T03:44:42.604Z,99.99
2022-12-07T03:45:42.605Z,99.99
2022-12-07T03:46:42.678Z,99.99
2022-12-07T03:47:42.621Z,99.99
2022-12-07T03:48:42.629Z,99.99
2022-12-07T03:49:42.637Z,99.99
2022-12-07T03:50:42.645Z,99.99
2022-12-07T03:51:42.654Z,99.99
2022-12-07T03:52:42.662Z,99.99
2022-12-07T03:53:42.669Z,99.99
2022-12-07T03:54:42.675Z,99.99
2022-12-07T03:55:42.683Z,99.99
2022-12-07T03:56:42.691Z,99.99
2022-12-07T03:57:42.702Z,99.99
2022-12-07T03:58:42.722Z,99.99
2022-12-07T03:59:42.714Z,99.99
2022-12-07T04:00:42.722Z,99.99
2022-12-07T04:01:42.788Z,99.99
2022-12-07T04:02:42.847Z,99.99
2022-12-07T04:03:42.745Z,99.99
2022-12-07T04:04:42.754Z,99.99
2022-12-07T04:05:42.770Z,99.99
2022-12-07T04:06:42.767Z,99.99
2022-12-07T04:07:42.868Z,99.99
2022-12-07T04:08:42.783Z,99.99
2022-12-07T04:09:42.794Z,99.99
2022-12-07T04:10:42.801Z,99.99
2022-12-07T04:11:42.808Z,99.99
2022-12-07T04:12:42.814Z,99.99
2022-12-07T04:13:42.822Z,99.99
2022-12-07T04:14:42.836Z,99.99
2022-12-07T04:15:42.909Z,99.99
2022-12-07T04:16:44.640Z,99.99
2022-12-07T04:17:42.856Z,99.99
2022-12-07T04:18:42.860Z,99.99
2022-12-07T04:19:42.871Z,99.99
2022-12-07T04:20:42.878Z,99.99
2022-12-07T04:21:42.883Z,99.99
2022-12-07T04:22:42.890Z,99.99
2022-12-07T04:23:42.902Z,99.99
2022-12-07T04:24:42.905Z,99.99
2022-12-07T04:25:42.912Z,99.99
2022-12-07T04:26:42.922Z,99.99
2022-12-07T04:27:42.927Z,99.99
2022-12-07T04:28:42.936Z,99.99
2022-12-07T04:29:42.943Z,99.99
2022-12-07T04:30:42.949Z,99.99
2022-12-07T04:31:43.017Z,99.99
2022-12-07T04:32:42.963Z,99.99
2022-12-07T04:33:42.974Z,99.99
2022-12-07T04:34:42.980Z,99.99
2022-12-07T04:35:42.987Z,99.99
2022-12-07T04:36:42.995Z,99.99
2022-12-07T04:37:43.006Z,99.99
2022-12-07T04:38:43.011Z,99.99
2022-12-07T04:39:43.015Z,99.99
2022-12-07T04:40:43.025Z,99.99
2022-12-07T04:41:43.030Z,99.99
2022-12-07T04:42:43.039Z,99.99
2022-12-07T04:43:43.045Z,99.99
2022-12-07T04:44:43.054Z,99.99
2022-12-07T04:45:43.059Z,99.99
2022-12-07T04:46:43.224Z,99.99
2022-12-07T04:47:43.074Z,99.99
2022-12-07T04:48:43.084Z,99.99
2022-12-07T04:49:43.089Z,99.99
2022-12-07T04:50:46.165Z,99.99
2022-12-07T04:51:43.105Z,99.99
2022-12-07T04:52:43.110Z,99.99
2022-12-07T04:53:43.120Z,99.99
2022-12-07T04:54:43.128Z,99.99
2022-12-07T04:55:43.134Z,99.99
2022-12-07T04:56:43.142Z,99.99
2022-12-07T04:57:43.151Z,99.99
2022-12-07T04:58:43.157Z,99.99
2022-12-07T04:59:45.796Z,99.99
2022-12-07T05:00:43.207Z,99.99
2022-12-07T05:01:43.242Z,99.99
2022-12-07T05:02:43.191Z,99.99
2022-12-07T05:03:43.194Z,99.99
2022-12-07T05:04:43.203Z,99.99
2022-12-07T05:05:43.207Z,99.99
2022-12-07T05:06:43.220Z,99.99
2022-12-07T05:07:43.251Z,99.99
2022-12-07T05:08:43.229Z,99.99
2022-12-07T05:09:43.239Z,99.99
2022-12-07T05:10:43.251Z,99.99
2022-12-07T05:11:43.252Z,99.99
2022-12-07T05:12:43.260Z,99.80
2022-12-07T05:13:43.270Z,99.62
2022-12-07T05:14:43.276Z,99.99
2022-12-07T05:15:43.284Z,99.90
2022-12-07T05:16:43.388Z,99.99
2022-12-07T05:17:43.299Z,99.62
2022-12-07T05:18:43.306Z,99.62
2022-12-07T05:19:43.313Z,99.80
2022-12-07T05:20:43.321Z,99.71
2022-12-07T05:21:43.329Z,99.71
2022-12-07T05:22:43.337Z,99.52
2022-12-07T05:23:43.344Z,99.62
2022-12-07T05:24:43.352Z,99.05
2022-12-07T05:25:43.361Z,99.24
2022-12-07T05:26:43.370Z,99.15
2022-12-07T05:27:43.376Z,99.33
2022-12-07T05:28:43.386Z,99.05
2022-12-07T05:29:43.394Z,99.05
2022-12-07T05:30:43.400Z,98.58
2022-12-07T05:31:43.532Z,98.77
2022-12-07T05:32:43.413Z,98.67
2022-12-07T05:33:43.429Z,98.39
2022-12-07T05:34:43.431Z,98.67
2022-12-07T05:35:43.438Z,98.10
2022-12-07T05:36:43.448Z,97.44
2022-12-07T05:37:43.457Z,97.16
2022-12-07T05:38:43.528Z,97.16
2022-12-07T05:39:43.470Z,97.16
2022-12-07T05:40:43.477Z,96.31
2022-12-07T05:41:43.487Z,95.50
2022-12-07T05:42:43.496Z,95.26
2022-12-07T05:43:43.500Z,95.45
2022-12-07T05:44:43.513Z,94.84
2022-12-07T05:45:43.582Z,94.93
2022-12-07T05:46:43.529Z,95.03
2022-12-07T05:47:43.533Z,94.18
2022-12-07T05:48:43.541Z,94.56
2022-12-07T05:49:43.548Z,94.37
2022-12-07T05:50:43.557Z,95.03
2022-12-07T05:51:43.564Z,94.27
2022-12-07T05:52:43.574Z,94.46
2022-12-07T05:53:43.581Z,94.08
2022-12-07T05:54:43.588Z,94.08
2022-12-07T05:55:43.601Z,93.61
2022-12-07T05:56:43.604Z,93.89
2022-12-07T05:57:43.615Z,93.99
2022-12-07T05:58:43.623Z,93.32
2022-12-07T05:59:43.628Z,93.42
2022-12-07T06:00:45.653Z,93.32
2022-12-07T06:01:43.667Z,93.04
2022-12-07T06:02:43.726Z,92.85
2022-12-07T06:03:43.660Z,92.47
2022-12-07T06:04:43.668Z,92.85
2022-12-07T06:05:43.749Z,92.29
2022-12-07T06:06:43.722Z,92.47
2022-12-07T06:07:43.742Z,92.57
2022-12-07T06:08:43.705Z,92.47
2022-12-07T06:09:43.709Z,92.47
2022-12-07T06:10:43.724Z,92.29
2022-12-07T06:11:43.726Z,92.66
2022-12-07T06:12:43.734Z,91.91
2022-12-07T06:13:47.194Z,92.66
2022-12-07T06:14:43.773Z,92.38
2022-12-07T06:15:43.769Z,91.81
2022-12-07T06:16:43.860Z,92.10
2022-12-07T06:17:43.777Z,92.10
2022-12-07T06:18:43.784Z,91.91
2022-12-07T06:19:43.792Z,91.72
2022-12-07T06:20:43.800Z,91.91
2022-12-07T06:21:43.812Z,92.00
2022-12-07T06:22:43.838Z,92.10
2022-12-07T06:23:43.836Z,92.19
2022-12-07T06:24:43.847Z,91.81
2022-12-07T06:25:43.842Z,91.91
2022-12-07T06:26:43.850Z,91.62
2022-12-07T06:27:43.860Z,91.72
2022-12-07T06:28:43.864Z,91.43
2022-12-07T06:29:43.873Z,91.81
2022-12-07T06:30:43.881Z,91.24
2022-12-07T06:31:43.953Z,91.24
2022-12-07T06:32:43.899Z,91.34
2022-12-07T06:33:43.907Z,91.24
2022-12-07T06:34:43.915Z,91.15
2022-12-07T06:35:43.922Z,91.24
2022-12-07T06:36:43.936Z,90.77
2022-12-07T06:37:43.939Z,90.48
2022-12-07T06:38:43.946Z,90.58
2022-12-07T06:39:43.954Z,90.30
2022-12-07T06:40:43.964Z,90.01
2022-12-07T06:41:43.972Z,90.11
2022-12-07T06:42:43.991Z,89.73
2022-12-07T06:43:43.991Z,89.92
2022-12-07T06:44:43.995Z,90.01
2022-12-07T06:45:44.057Z,90.01
2022-12-07T06:46:44.009Z,89.54
2022-12-07T06:47:44.760Z,89.25
2022-12-07T06:48:44.029Z,89.25
2022-12-07T06:49:44.036Z,89.44
2022-12-07T06:50:44.042Z,89.16
2022-12-07T06:51:44.050Z,89.30
2022-12-07T06:52:44.061Z,89.16
2022-12-07T06:53:44.068Z,88.87
2022-12-07T06:54:44.076Z,88.97
2022-12-07T06:55:44.082Z,88.64
2022-12-07T06:56:44.093Z,88.40
2022-12-07T06:57:44.118Z,88.07
2022-12-07T06:58:44.117Z,87.88
2022-12-07T06:59:44.124Z,87.69
2022-12-07T07:00:44.268Z,87.50
2022-12-07T07:01:44.244Z,87.78
2022-12-07T07:02:44.209Z,87.78
2022-12-07T07:03:44.152Z,87.59
2022-12-07T07:04:44.159Z,87.31
2022-12-07T07:05:44.169Z,86.93
2022-12-07T07:06:44.176Z,87.12
2022-12-07T07:08:05.366Z,87.12
2022-12-07T07:08:44.268Z,87.12
2022-12-07T07:09:44.202Z,87.40
2022-12-07T07:10:44.210Z,86.93
2022-12-07T07:11:44.220Z,87.02
2022-12-07T07:12:44.228Z,86.65
2022-12-07T07:13:44.233Z,86.93
2022-12-07T07:14:44.244Z,86.55
2022-12-07T07:15:44.261Z,86.46
2022-12-07T07:16:44.341Z,86.74
2022-12-07T07:17:44.269Z,86.65
2022-12-07T07:18:44.279Z,86.55
2022-12-07T07:19:44.287Z,86.55
2022-12-07T07:20:44.295Z,86.36
2022-12-07T07:21:44.304Z,86.46
2022-12-07T07:22:44.311Z,86.46
2022-12-07T07:23:44.320Z,86.55
2022-12-07T07:24:44.333Z,86.46
2022-12-07T07:25:44.338Z,86.65
2022-12-07T07:26:44.345Z,86.55
2022-12-07T07:27:44.354Z,86.46
2022-12-07T07:28:44.364Z,86.46
2022-12-07T07:29:44.370Z,86.74
2022-12-07T07:30:44.409Z,86.36
2022-12-07T07:31:44.387Z,86.46
2022-12-07T07:32:44.397Z,86.74
2022-12-07T07:33:44.407Z,86.36
2022-12-07T07:34:44.416Z,86.46
2022-12-07T07:35:44.423Z,86.55
2022-12-07T07:36:44.431Z,86.36
2022-12-07T07:37:44.442Z,86.36
2022-12-07T07:38:44.448Z,86.46
2022-12-07T07:39:44.458Z,86.74
2022-12-07T07:40:44.466Z,86.55
2022-12-07T07:41:44.474Z,86.83
2022-12-07T07:42:44.487Z,87.12
2022-12-07T07:43:44.492Z,87.50
2022-12-07T07:44:44.502Z,87.50
2022-12-07T07:45:44.562Z,87.69
2022-12-07T07:46:44.520Z,87.98
2022-12-07T07:47:44.526Z,88.35
2022-12-07T07:48:44.536Z,88.64
2022-12-07T07:49:48.053Z,88.92
2022-12-07T07:50:44.551Z,88.92
2022-12-07T07:51:44.560Z,89.11
2022-12-07T07:52:44.572Z,89.68
2022-12-07T07:53:44.578Z,89.39
2022-12-07T07:54:44.587Z,89.68
2022-12-07T07:55:44.594Z,90.15
2022-12-07T07:56:44.604Z,90.25
2022-12-07T07:57:48.322Z,90.44
2022-12-07T07:58:44.619Z,90.81
2022-12-07T07:59:44.627Z,90.81
2022-12-07T08:00:44.635Z,91.29
2022-12-07T08:01:44.701Z,91.00
2022-12-07T08:02:44.654Z,91.10
2022-12-07T08:03:44.663Z,91.00
2022-12-07T08:04:44.795Z,91.10
2022-12-07T08:05:44.680Z,91.00
2022-12-07T08:06:44.689Z,90.53
2022-12-07T08:07:44.752Z,90.72
2022-12-07T08:08:44.705Z,90.72
2022-12-07T08:09:44.712Z,90.44
2022-12-07T08:10:44.722Z,90.15
2022-12-07T08:11:44.729Z,90.25
2022-12-07T08:12:44.741Z,90.15
2022-12-07T08:13:44.751Z,90.15
2022-12-07T08:14:44.758Z,89.96
2022-12-07T08:15:44.821Z,90.25
2022-12-07T08:16:44.775Z,90.53
2022-12-07T08:17:44.782Z,90.63
2022-12-07T08:18:44.792Z,90.53
2022-12-07T08:19:44.801Z,89.96
2022-12-07T08:20:44.809Z,90.15
2022-12-07T08:21:44.819Z,90.15
2022-12-07T08:22:44.827Z,89.96
2022-12-07T08:23:44.834Z,89.96
2022-12-07T08:24:44.844Z,90.53
2022-12-07T08:25:44.855Z,90.63
2022-12-07T08:26:44.863Z,91.00
2022-12-07T08:27:44.869Z,91.19
2022-12-07T08:28:44.884Z,91.57
2022-12-07T08:29:44.893Z,92.05
2022-12-07T08:30:44.956Z,92.43
2022-12-07T08:31:44.973Z,93.37
2022-12-07T08:32:44.916Z,93.75
2022-12-07T08:33:44.927Z,94.79
2022-12-07T08:34:44.939Z,95.17
2022-12-07T08:35:44.943Z,95.83
2022-12-07T08:36:44.951Z,97.06
2022-12-07T08:37:44.971Z,97.73
2022-12-07T08:39:01.524Z,97.73
2022-12-07T08:39:44.978Z,98.20
2022-12-07T08:40:44.987Z,98.01
2022-12-07T08:41:44.997Z,97.63
2022-12-07T08:42:45.005Z,97.82
2022-12-07T08:43:45.021Z,97.54
2022-12-07T08:44:45.024Z,97.44
2022-12-07T08:45:45.031Z,97.54
2022-12-07T08:46:45.068Z,97.63
2022-12-07T08:47:45.049Z,97.73
2022-12-07T08:48:45.081Z,97.25
2022-12-07T08:49:45.070Z,97.16
2022-12-07T08:50:49.593Z,97.16
2022-12-07T08:51:45.085Z,97.73
2022-12-07T08:52:45.094Z,97.25
2022-12-07T08:53:45.102Z,97.25
2022-12-07T08:54:45.113Z,97.16
2022-12-07T08:55:45.125Z,97.73
2022-12-07T08:56:45.132Z,97.44
2022-12-07T08:57:45.151Z,98.20
2022-12-07T08:58:45.149Z,98.86
2022-12-07T08:59:45.155Z,99.05
2022-12-07T09:00:45.164Z,99.52
2022-12-07T09:01:45.250Z,99.99
2022-12-07T09:02:45.183Z,99.99
2022-12-07T09:03:45.191Z,99.99
2022-12-07T09:04:45.202Z,99.99
2022-12-07T09:05:45.246Z,99.99
2022-12-07T09:06:45.324Z,99.99
2022-12-07T09:07:45.276Z,99.99
2022-12-07T09:08:45.248Z,99.99
2022-12-07T09:09:45.246Z,99.99
2022-12-07T09:10:45.259Z,99.99
2022-12-07T09:11:45.267Z,99.99
2022-12-07T09:12:45.277Z,99.99
2022-12-07T09:13:45.286Z,99.99
2022-12-07T09:14:45.308Z,99.99
2022-12-07T09:15:45.362Z,99.99
2022-12-07T09:16:45.308Z,99.99
2022-12-07T09:17:45.317Z,99.99
2022-12-07T09:18:45.328Z,99.99
2022-12-07T09:19:45.334Z,99.99
2022-12-07T09:20:45.346Z,99.99
2022-12-07T09:21:45.364Z,99.99
2022-12-07T09:22:45.392Z,99.99
2022-12-07T09:23:45.372Z,99.99
2022-12-07T09:24:45.381Z,99.99
2022-12-07T09:25:45.390Z,99.99
2022-12-07T09:26:45.442Z,99.99
2022-12-07T09:27:45.411Z,99.99
2022-12-07T09:28:45.417Z,99.99
2022-12-07T09:29:45.433Z,99.99
2022-12-07T09:31:21.142Z,99.99
2022-12-07T09:31:45.502Z,99.99
2022-12-07T09:32:45.452Z,99.99
2022-12-07T09:33:45.462Z,99.99
2022-12-07T09:34:45.545Z,99.99
2022-12-07T09:35:45.481Z,99.99
2022-12-07T09:36:45.488Z,99.99
2022-12-07T09:37:45.499Z,99.99
2022-12-07T09:38:45.510Z,99.99
2022-12-07T09:39:50.123Z,99.99
2022-12-07T09:40:45.525Z,99.99
2022-12-07T09:41:45.535Z,99.99
2022-12-07T09:42:45.627Z,99.99
2022-12-07T09:43:45.553Z,99.99
2022-12-07T09:44:45.564Z,99.99
2022-12-07T09:45:48.544Z,99.99
2022-12-07T09:46:45.634Z,99.99
2022-12-07T09:47:45.589Z,99.99
2022-12-07T09:48:45.599Z,99.99
2022-12-07T09:49:45.612Z,99.99
2022-12-07T09:50:45.626Z,99.99
2022-12-07T09:51:45.630Z,99.99
2022-12-07T09:52:45.641Z,99.99
2022-12-07T09:53:45.648Z,99.99
2022-12-07T09:54:45.654Z,99.99
2022-12-07T09:55:45.660Z,99.99
2022-12-07T09:56:45.678Z,99.99
2022-12-07T09:57:45.697Z,99.99
2022-12-07T09:58:45.696Z,99.99
2022-12-07T09:59:45.700Z,99.99
2022-12-07T10:00:45.709Z,99.99
2022-12-07T10:01:45.804Z,99.99
2022-12-07T10:02:45.728Z,99.99
2022-12-07T10:03:45.735Z,99.99
2022-12-07T10:04:45.804Z,99.99
2022-12-07T10:05:45.752Z,99.99
2022-12-07T10:06:45.761Z,99.99
2022-12-07T10:07:45.826Z,99.99
2022-12-07T10:08:45.781Z,99.99
2022-12-07T10:09:45.797Z,99.99
2022-12-07T10:10:45.801Z,99.99
2022-12-07T10:11:45.817Z,99.99
2022-12-07T10:12:45.816Z,99.99
2022-12-07T10:13:45.825Z,99.99
2022-12-07T10:15:06.811Z,99.99
2022-12-07T10:15:45.908Z,99.99
2022-12-07T10:16:45.878Z,99.99
2022-12-07T10:17:45.863Z,99.99
2022-12-07T10:18:45.872Z,99.99
2022-12-07T10:19:45.881Z,99.99
2022-12-07T10:20:45.890Z,99.99
2022-12-07T10:21:45.897Z,99.99
2022-12-07T10:22:45.907Z,99.99
2022-12-07T10:23:45.916Z,99.99
2022-12-07T10:24:45.926Z,99.99
2022-12-07T10:25:45.937Z,99.99
2022-12-07T10:26:45.944Z,99.99
2022-12-07T10:27:45.952Z,99.99
2022-12-07T10:28:45.961Z,99.99
2022-12-07T10:29:45.972Z,99.99
2022-12-07T10:30:45.981Z,99.99
2022-12-07T10:31:46.138Z,99.99
2022-12-07T10:32:45.997Z,99.99
2022-12-07T10:33:46.008Z,99.99
2022-12-07T10:34:51.945Z,99.99
2022-12-07T10:35:46.030Z,99.99
2022-12-07T10:36:46.035Z,99.99
2022-12-07T10:37:46.044Z,99.99
2022-12-07T10:38:46.055Z,99.99
2022-12-07T10:39:46.070Z,99.99
2022-12-07T10:40:46.775Z,99.99
2022-12-07T10:41:46.082Z,99.99
2022-12-07T10:42:46.091Z,99.99
2022-12-07T10:43:46.099Z,99.99
2022-12-07T10:44:46.135Z,99.99
2022-12-07T10:46:02.578Z,99.99
2022-12-07T10:46:46.186Z,99.99
2022-12-07T10:47:46.135Z,99.99
2022-12-07T10:48:46.148Z,99.99
2022-12-07T10:49:46.155Z,99.99
2022-12-07T10:50:46.168Z,99.99
2022-12-07T10:51:46.173Z,99.99
2022-12-07T10:52:46.189Z,99.99
2022-12-07T10:53:46.193Z,99.99
2022-12-07T10:54:46.203Z,99.99
2022-12-07T10:55:46.214Z,99.99
2022-12-07T10:56:51.034Z,99.99
2022-12-07T10:57:46.233Z,99.99
2022-12-07T10:58:46.243Z,99.99
2022-12-07T10:59:46.250Z,99.99
2022-12-07T11:00:46.425Z,99.99
2022-12-07T11:01:46.332Z,99.99
2022-12-07T11:02:46.328Z,99.99
2022-12-07T11:03:46.289Z,99.99
2022-12-07T11:04:46.298Z,99.99
2022-12-07T11:05:46.306Z,99.99
2022-12-07T11:06:46.318Z,99.99
2022-12-07T11:07:46.396Z,99.99
2022-12-07T11:08:46.338Z,99.99
2022-12-07T11:10:07.971Z,99.99
2022-12-07T11:10:46.356Z,99.99
2022-12-07T11:11:46.366Z,99.99
2022-12-07T11:12:46.376Z,99.99
2022-12-07T11:13:46.385Z,99.99
2022-12-07T11:14:46.399Z,99.99
2022-12-07T11:15:46.404Z,99.99
2022-12-07T11:16:46.447Z,99.99
2022-12-07T11:17:46.428Z,99.99
2022-12-07T11:18:46.437Z,99.99
2022-12-07T11:19:46.444Z,99.99
2022-12-07T11:20:46.454Z,99.99
2022-12-07T11:21:46.466Z,99.99
2022-12-07T11:22:46.477Z,99.99
2022-12-07T11:23:46.490Z,99.99
2022-12-07T11:24:46.494Z,99.99
2022-12-07T11:25:46.507Z,99.99
2022-12-07T11:26:46.515Z,99.99
2022-12-07T11:27:46.525Z,99.99
2022-12-07T11:28:46.538Z,99.99
2022-12-07T11:29:46.545Z,99.99
2022-12-07T11:30:46.554Z,99.99
2022-12-07T11:31:46.591Z,99.99
2022-12-07T11:32:46.575Z,99.99
2022-12-07T11:33:46.585Z,99.99
2022-12-07T11:34:46.595Z,99.99
2022-12-07T11:35:46.605Z,99.99
2022-12-07T11:36:46.615Z,99.99
2022-12-07T11:37:46.626Z,99.99
2022-12-07T11:38:46.640Z,99.99
2022-12-07T11:39:46.644Z,99.99
2022-12-07T11:40:46.655Z,99.99
2022-12-07T11:41:46.664Z,99.99
2022-12-07T11:42:46.675Z,99.99
2022-12-07T11:43:46.685Z,99.99
2022-12-07T11:44:46.702Z,99.99
2022-12-07T11:45:46.704Z,99.99
2022-12-07T11:46:46.761Z,99.99
2022-12-07T11:47:46.725Z,99.99
2022-12-07T11:48:46.734Z,99.99
2022-12-07T11:49:46.744Z,99.99
2022-12-07T11:50:46.754Z,99.99
2022-12-07T11:51:46.765Z,99.99
2022-12-07T11:52:46.773Z,99.99
2022-12-07T11:53:46.784Z,99.99
2022-12-07T11:54:46.798Z,99.99
2022-12-07T11:55:46.804Z,99.99
2022-12-07T11:56:46.812Z,99.99
2022-12-07T11:57:46.826Z,99.99
2022-12-07T11:58:46.838Z,99.99
2022-12-07T11:59:46.844Z,99.99
2022-12-07T12:00:46.860Z,99.99
2022-12-07T12:01:46.914Z,99.99
2022-12-07T12:02:46.928Z,99.99
2022-12-07T12:03:51.230Z,99.99
2022-12-07T12:04:46.894Z,99.99
2022-12-07T12:05:46.905Z,99.99
2022-12-07T12:06:47.068Z,99.99
2022-12-07T12:09:50.455Z,99.99
2022-12-07T12:10:46.958Z,99.99
2022-12-07T12:11:47.070Z,99.99
2022-12-07T12:14:48.396Z,99.99
2022-12-07T12:15:47.008Z,99.99
2022-12-07T12:16:47.078Z,99.99
2022-12-07T12:17:47.030Z,99.99
2022-12-07T12:18:47.040Z,99.99
2022-12-07T12:19:47.053Z,99.99
2022-12-07T12:20:47.060Z,99.99
2022-12-07T12:21:47.072Z,99.99
2022-12-07T12:22:47.086Z,99.99
2022-12-07T12:23:47.093Z,99.99
2022-12-07T12:24:47.102Z,99.99
2022-12-07T12:25:47.195Z,99.99
2022-12-07T12:26:47.123Z,99.99
2022-12-07T12:27:47.134Z,99.99
2022-12-07T12:28:50.241Z,99.99
2022-12-07T12:29:47.154Z,99.99
2022-12-07T12:30:47.164Z,99.99
2022-12-07T12:31:47.214Z,99.99
2022-12-07T12:32:47.185Z,99.99
2022-12-07T12:33:47.195Z,99.99
2022-12-07T12:34:50.348Z,99.99
2022-12-07T12:35:47.225Z,99.99
2022-12-07T12:36:47.284Z,99.99
2022-12-07T12:37:47.250Z,99.99
2022-12-07T12:38:47.247Z,99.99
2022-12-07T12:39:47.261Z,99.99
2022-12-07T12:40:50.783Z,99.99
2022-12-07T12:41:47.280Z,99.99
2022-12-07T12:42:47.290Z,99.99
2022-12-07T12:43:47.308Z,99.99
2022-12-07T12:44:47.309Z,99.99
2022-12-07T12:45:47.354Z,99.99
2022-12-07T12:46:49.955Z,99.99
2022-12-07T12:47:47.339Z,99.99
2022-12-07T12:48:47.349Z,99.99
2022-12-07T12:49:47.360Z,99.99
2022-12-07T12:50:47.370Z,99.99
2022-12-07T12:51:47.382Z,99.99
2022-12-07T12:52:50.447Z,99.99
2022-12-07T12:53:47.404Z,99.99
2022-12-07T12:54:47.412Z,99.99
2022-12-07T12:55:47.422Z,99.99
2022-12-07T12:56:47.436Z,99.99